sensor_id;sensor_type;location;lat;lon;timestamp;P1;durP1;ratioP1;P2;durP2;ratioP2
68089;SDS011;54880;50.986;6.990;2023-04-24T00:01:13;3.13;;;0.87;;
68089;SDS011;54880;50.986;6.990;2023-04-24T00:03:40;3.60;;;1.00;;
68089;SDS011;54880;50.986;6.990;2023-04-24T00:06:06;3.65;;;1.05;;
68089;SDS011;54880;50.986;6.990;2023-04-24T00:08:37;4.20;;;1.10;;
68089;SDS011;54880;50.986;6.990;2023-04-24T00:11:02;5.65;;;1.63;;
68089;SDS011;54880;50.986;6.990;2023-04-24T00:13:27;5.00;;;1.10;;
68089;SDS011;54880;50.986;6.990;2023-04-24T00:15:53;4.50;;;1.30;;
68089;SDS011;54880;50.986;6.990;2023-04-24T00:18:19;4.40;;;1.30;;
68089;SDS011;54880;50.986;6.990;2023-04-24T00:20:44;4.00;;;1.20;;
68089;SDS011;54880;50.986;6.990;2023-04-24T00:23:09;5.60;;;1.30;;
68089;SDS011;54880;50.986;6.990;2023-04-24T00:25:34;4.83;;;1.20;;
68089;SDS011;54880;50.986;6.990;2023-04-24T00:28:00;4.17;;;1.30;;
68089;SDS011;54880;50.986;6.990;2023-04-24T00:30:25;4.63;;;1.30;;
68089;SDS011;54880;50.986;6.990;2023-04-24T00:32:50;4.60;;;1.30;;
68089;SDS011;54880;50.986;6.990;2023-04-24T00:35:16;4.00;;;1.20;;
68089;SDS011;54880;50.986;6.990;2023-04-24T00:37:41;5.13;;;1.13;;
68089;SDS011;54880;50.986;6.990;2023-04-24T00:40:07;4.32;;;1.30;;
68089;SDS011;54880;50.986;6.990;2023-04-24T00:42:32;5.20;;;1.60;;
68089;SDS011;54880;50.986;6.990;2023-04-24T00:44:58;4.87;;;1.20;;
68089;SDS011;54880;50.986;6.990;2023-04-24T00:47:23;4.47;;;1.10;;
68089;SDS011;54880;50.986;6.990;2023-04-24T00:49:49;5.27;;;1.37;;
68089;SDS011;54880;50.986;6.990;2023-04-24T00:52:14;4.30;;;1.30;;
68089;SDS011;54880;50.986;6.990;2023-04-24T00:54:43;5.50;;;1.60;;
68089;SDS011;54880;50.986;6.990;2023-04-24T00:57:08;5.17;;;1.40;;
68089;SDS011;54880;50.986;6.990;2023-04-24T00:59:34;5.57;;;1.40;;
68089;SDS011;54880;50.986;6.990;2023-04-24T01:02:00;5.43;;;1.35;;
68089;SDS011;54880;50.986;6.990;2023-04-24T01:04:26;5.13;;;1.30;;
68089;SDS011;54880;50.986;6.990;2023-04-24T01:06:51;4.77;;;1.30;;
68089;SDS011;54880;50.986;6.990;2023-04-24T01:09:17;5.70;;;1.40;;
68089;SDS011;54880;50.986;6.990;2023-04-24T01:11:43;5.90;;;1.45;;
68089;SDS011;54880;50.986;6.990;2023-04-24T01:14:08;4.50;;;1.40;;
68089;SDS011;54880;50.986;6.990;2023-04-24T01:16:33;5.87;;;1.20;;
68089;SDS011;54880;50.986;6.990;2023-04-24T01:18:59;5.10;;;1.30;;
68089;SDS011;54880;50.986;6.990;2023-04-24T01:21:26;5.10;;;1.57;;
68089;SDS011;54880;50.986;6.990;2023-04-24T01:23:52;5.15;;;1.50;;
68089;SDS011;54880;50.986;6.990;2023-04-24T01:26:18;7.17;;;1.90;;
68089;SDS011;54880;50.986;6.990;2023-04-24T01:28:45;4.60;;;1.55;;
68089;SDS011;54880;50.986;6.990;2023-04-24T01:31:10;6.53;;;1.83;;
68089;SDS011;54880;50.986;6.990;2023-04-24T01:33:36;5.20;;;1.70;;
68089;SDS011;54880;50.986;6.990;2023-04-24T01:36:01;6.47;;;1.90;;
68089;SDS011;54880;50.986;6.990;2023-04-24T01:38:26;5.83;;;2.60;;
68089;SDS011;54880;50.986;6.990;2023-04-24T01:40:52;6.80;;;2.70;;
68089;SDS011;54880;50.986;6.990;2023-04-24T01:43:17;6.68;;;2.67;;
68089;SDS011;54880;50.986;6.990;2023-04-24T01:45:43;7.40;;;2.80;;
68089;SDS011;54880;50.986;6.990;2023-04-24T01:48:08;7.20;;;3.37;;
68089;SDS011;54880;50.986;6.990;2023-04-24T01:50:33;8.90;;;2.90;;
68089;SDS011;54880;50.986;6.990;2023-04-24T01:52:59;6.83;;;2.87;;
68089;SDS011;54880;50.986;6.990;2023-04-24T01:55:24;8.63;;;2.80;;
68089;SDS011;54880;50.986;6.990;2023-04-24T01:57:50;7.63;;;3.20;;
68089;SDS011;54880;50.986;6.990;2023-04-24T02:00:17;7.93;;;3.30;;
68089;SDS011;54880;50.986;6.990;2023-04-24T02:02:44;7.90;;;3.35;;
68089;SDS011;54880;50.986;6.990;2023-04-24T02:05:09;8.00;;;3.30;;
68089;SDS011;54880;50.986;6.990;2023-04-24T02:07:37;9.35;;;3.33;;
68089;SDS011;54880;50.986;6.990;2023-04-24T02:10:03;8.93;;;3.43;;
68089;SDS011;54880;50.986;6.990;2023-04-24T02:12:29;8.73;;;3.50;;
68089;SDS011;54880;50.986;6.990;2023-04-24T02:14:54;7.47;;;3.53;;
68089;SDS011;54880;50.986;6.990;2023-04-24T02:17:19;8.60;;;3.80;;
68089;SDS011;54880;50.986;6.990;2023-04-24T02:19:45;9.30;;;3.70;;
68089;SDS011;54880;50.986;6.990;2023-04-24T02:22:11;8.85;;;4.25;;
68089;SDS011;54880;50.986;6.990;2023-04-24T02:24:36;9.90;;;4.10;;
68089;SDS011;54880;50.986;6.990;2023-04-24T02:27:02;9.40;;;4.27;;
68089;SDS011;54880;50.986;6.990;2023-04-24T02:29:27;9.40;;;4.35;;
68089;SDS011;54880;50.986;6.990;2023-04-24T02:31:53;10.53;;;4.40;;
68089;SDS011;54880;50.986;6.990;2023-04-24T02:34:18;9.03;;;4.33;;
68089;SDS011;54880;50.986;6.990;2023-04-24T02:36:43;10.43;;;4.20;;
68089;SDS011;54880;50.986;6.990;2023-04-24T02:39:08;10.53;;;4.43;;
68089;SDS011;54880;50.986;6.990;2023-04-24T02:41:34;9.43;;;4.33;;
68089;SDS011;54880;50.986;6.990;2023-04-24T02:43:59;9.07;;;4.40;;
68089;SDS011;54880;50.986;6.990;2023-04-24T02:46:25;8.20;;;4.07;;
68089;SDS011;54880;50.986;6.990;2023-04-24T02:48:50;12.75;;;3.83;;
68089;SDS011;54880;50.986;6.990;2023-04-24T02:51:15;11.70;;;4.40;;
68089;SDS011;54880;50.986;6.990;2023-04-24T02:53:40;9.63;;;4.50;;
68089;SDS011;54880;50.986;6.990;2023-04-24T02:56:06;11.50;;;4.47;;
68089;SDS011;54880;50.986;6.990;2023-04-24T02:58:31;9.37;;;4.63;;
68089;SDS011;54880;50.986;6.990;2023-04-24T03:00:56;10.97;;;4.40;;
68089;SDS011;54880;50.986;6.990;2023-04-24T03:03:22;9.13;;;4.33;;
68089;SDS011;54880;50.986;6.990;2023-04-24T03:05:47;11.03;;;4.80;;
68089;SDS011;54880;50.986;6.990;2023-04-24T03:08:12;12.07;;;4.90;;
68089;SDS011;54880;50.986;6.990;2023-04-24T03:10:39;11.15;;;4.50;;
68089;SDS011;54880;50.986;6.990;2023-04-24T03:13:05;12.57;;;4.40;;
68089;SDS011;54880;50.986;6.990;2023-04-24T03:15:30;9.97;;;5.00;;
68089;SDS011;54880;50.986;6.990;2023-04-24T03:17:55;9.75;;;5.10;;
68089;SDS011;54880;50.986;6.990;2023-04-24T03:20:21;12.00;;;5.25;;
68089;SDS011;54880;50.986;6.990;2023-04-24T03:22:46;9.80;;;4.95;;
68089;SDS011;54880;50.986;6.990;2023-04-24T03:25:12;14.07;;;5.57;;
68089;SDS011;54880;50.986;6.990;2023-04-24T03:27:37;10.53;;;5.30;;
68089;SDS011;54880;50.986;6.990;2023-04-24T03:30:07;12.07;;;5.32;;
68089;SDS011;54880;50.986;6.990;2023-04-24T03:32:44;12.30;;;5.60;;
68089;SDS011;54880;50.986;6.990;2023-04-24T03:35:12;17.35;;;6.65;;
68089;SDS011;54880;50.986;6.990;2023-04-24T03:37:38;11.13;;;5.73;;
68089;SDS011;54880;50.986;6.990;2023-04-24T03:40:41;12.48;;;6.50;;
68089;SDS011;54880;50.986;6.990;2023-04-24T03:43:27;11.52;;;5.90;;
68089;SDS011;54880;50.986;6.990;2023-04-24T03:45:54;12.53;;;5.80;;
68089;SDS011;54880;50.986;6.990;2023-04-24T03:48:19;11.25;;;6.18;;
68089;SDS011;54880;50.986;6.990;2023-04-24T03:50:45;11.67;;;5.60;;
68089;SDS011;54880;50.986;6.990;2023-04-24T03:53:11;11.40;;;5.37;;
68089;SDS011;54880;50.986;6.990;2023-04-24T03:55:39;11.80;;;6.07;;
68089;SDS011;54880;50.986;6.990;2023-04-24T03:58:04;11.50;;;5.87;;
68089;SDS011;54880;50.986;6.990;2023-04-24T04:00:31;11.55;;;5.82;;
68089;SDS011;54880;50.986;6.990;2023-04-24T04:03:17;11.95;;;6.15;;
68089;SDS011;54880;50.986;6.990;2023-04-24T04:05:42;10.93;;;5.53;;
68089;SDS011;54880;50.986;6.990;2023-04-24T04:08:07;15.10;;;6.03;;
68089;SDS011;54880;50.986;6.990;2023-04-24T04:10:33;12.00;;;5.70;;
68089;SDS011;54880;50.986;6.990;2023-04-24T04:12:58;12.10;;;5.70;;
68089;SDS011;54880;50.986;6.990;2023-04-24T04:15:23;10.83;;;5.17;;
68089;SDS011;54880;50.986;6.990;2023-04-24T04:17:49;12.27;;;5.32;;
68089;SDS011;54880;50.986;6.990;2023-04-24T04:20:15;13.53;;;5.53;;
68089;SDS011;54880;50.986;6.990;2023-04-24T04:22:40;12.60;;;5.93;;
68089;SDS011;54880;50.986;6.990;2023-04-24T04:25:08;11.02;;;5.18;;
68089;SDS011;54880;50.986;6.990;2023-04-24T04:27:33;9.82;;;4.68;;
68089;SDS011;54880;50.986;6.990;2023-04-24T04:30:04;10.87;;;4.70;;
68089;SDS011;54880;50.986;6.990;2023-04-24T04:32:40;11.15;;;5.45;;
68089;SDS011;54880;50.986;6.990;2023-04-24T04:35:05;10.73;;;4.93;;
68089;SDS011;54880;50.986;6.990;2023-04-24T04:37:32;11.10;;;5.10;;
68089;SDS011;54880;50.986;6.990;2023-04-24T04:40:21;10.38;;;5.10;;
68089;SDS011;54880;50.986;6.990;2023-04-24T04:42:56;12.00;;;4.95;;
68089;SDS011;54880;50.986;6.990;2023-04-24T04:45:23;12.40;;;5.13;;
68089;SDS011;54880;50.986;6.990;2023-04-24T04:48:08;9.97;;;5.33;;
68089;SDS011;54880;50.986;6.990;2023-04-24T04:50:35;11.35;;;4.82;;
68089;SDS011;54880;50.986;6.990;2023-04-24T04:53:05;8.75;;;4.63;;
68089;SDS011;54880;50.986;6.990;2023-04-24T04:55:33;10.18;;;5.10;;
68089;SDS011;54880;50.986;6.990;2023-04-24T04:58:09;10.70;;;4.72;;
68089;SDS011;54880;50.986;6.990;2023-04-24T05:00:35;9.40;;;4.53;;
68089;SDS011;54880;50.986;6.990;2023-04-24T05:03:10;9.43;;;4.65;;
68089;SDS011;54880;50.986;6.990;2023-04-24T05:05:36;10.93;;;4.93;;
68089;SDS011;54880;50.986;6.990;2023-04-24T05:08:07;9.10;;;4.67;;
68089;SDS011;54880;50.986;6.990;2023-04-24T05:10:32;10.68;;;4.65;;
68089;SDS011;54880;50.986;6.990;2023-04-24T05:12:58;11.47;;;4.83;;
68089;SDS011;54880;50.986;6.990;2023-04-24T05:15:23;10.77;;;5.20;;
68089;SDS011;54880;50.986;6.990;2023-04-24T05:17:48;11.77;;;4.63;;
68089;SDS011;54880;50.986;6.990;2023-04-24T05:20:13;8.63;;;4.43;;
68089;SDS011;54880;50.986;6.990;2023-04-24T05:22:39;9.85;;;4.57;;
68089;SDS011;54880;50.986;6.990;2023-04-24T05:25:06;9.93;;;4.97;;
68089;SDS011;54880;50.986;6.990;2023-04-24T05:27:46;10.43;;;4.53;;
68089;SDS011;54880;50.986;6.990;2023-04-24T05:30:14;12.10;;;4.32;;
68089;SDS011;54880;50.986;6.990;2023-04-24T05:32:39;10.20;;;4.37;;
68089;SDS011;54880;50.986;6.990;2023-04-24T05:35:05;10.57;;;4.90;;
68089;SDS011;54880;50.986;6.990;2023-04-24T05:37:30;9.53;;;4.53;;
68089;SDS011;54880;50.986;6.990;2023-04-24T05:39:56;13.20;;;4.63;;
68089;SDS011;54880;50.986;6.990;2023-04-24T05:42:22;10.30;;;4.63;;
68089;SDS011;54880;50.986;6.990;2023-04-24T05:44:49;12.18;;;4.88;;
68089;SDS011;54880;50.986;6.990;2023-04-24T05:47:14;11.60;;;4.87;;
68089;SDS011;54880;50.986;6.990;2023-04-24T05:49:40;10.68;;;4.97;;
68089;SDS011;54880;50.986;6.990;2023-04-24T05:52:06;10.05;;;4.82;;
68089;SDS011;54880;50.986;6.990;2023-04-24T05:54:34;10.93;;;5.03;;
68089;SDS011;54880;50.986;6.990;2023-04-24T05:56:59;10.35;;;5.28;;
68089;SDS011;54880;50.986;6.990;2023-04-24T05:59:37;11.93;;;4.90;;
68089;SDS011;54880;50.986;6.990;2023-04-24T06:02:04;9.73;;;5.05;;
68089;SDS011;54880;50.986;6.990;2023-04-24T06:04:29;13.23;;;5.57;;
68089;SDS011;54880;50.986;6.990;2023-04-24T06:06:57;14.68;;;5.35;;
68089;SDS011;54880;50.986;6.990;2023-04-24T06:09:23;12.18;;;5.82;;
68089;SDS011;54880;50.986;6.990;2023-04-24T06:11:49;11.47;;;5.23;;
68089;SDS011;54880;50.986;6.990;2023-04-24T06:14:14;9.95;;;4.82;;
68089;SDS011;54880;50.986;6.990;2023-04-24T06:17:09;8.85;;;4.28;;
68089;SDS011;54880;50.986;6.990;2023-04-24T06:19:38;9.10;;;4.17;;
68089;SDS011;54880;50.986;6.990;2023-04-24T06:22:03;10.55;;;3.53;;
68089;SDS011;54880;50.986;6.990;2023-04-24T06:24:29;7.30;;;2.93;;
68089;SDS011;54880;50.986;6.990;2023-04-24T06:26:54;8.97;;;2.70;;
68089;SDS011;54880;50.986;6.990;2023-04-24T06:29:21;7.63;;;2.70;;
68089;SDS011;54880;50.986;6.990;2023-04-24T06:31:47;8.50;;;3.00;;
68089;SDS011;54880;50.986;6.990;2023-04-24T06:34:12;9.27;;;3.37;;
68089;SDS011;54880;50.986;6.990;2023-04-24T06:36:39;7.22;;;3.33;;
68089;SDS011;54880;50.986;6.990;2023-04-24T06:39:04;7.13;;;2.80;;
68089;SDS011;54880;50.986;6.990;2023-04-24T06:41:29;6.20;;;2.57;;
68089;SDS011;54880;50.986;6.990;2023-04-24T06:43:55;8.87;;;2.50;;
68089;SDS011;54880;50.986;6.990;2023-04-24T06:46:20;6.47;;;2.33;;
68089;SDS011;54880;50.986;6.990;2023-04-24T06:48:48;8.05;;;2.58;;
68089;SDS011;54880;50.986;6.990;2023-04-24T06:51:13;8.07;;;2.30;;
68089;SDS011;54880;50.986;6.990;2023-04-24T06:53:39;6.00;;;2.00;;
68089;SDS011;54880;50.986;6.990;2023-04-24T06:56:04;6.73;;;2.03;;
68089;SDS011;54880;50.986;6.990;2023-04-24T06:58:32;6.50;;;1.90;;
68089;SDS011;54880;50.986;6.990;2023-04-24T07:00:57;6.70;;;2.00;;
68089;SDS011;54880;50.986;6.990;2023-04-24T07:03:25;5.95;;;1.90;;
68089;SDS011;54880;50.986;6.990;2023-04-24T07:05:50;6.13;;;2.03;;
68089;SDS011;54880;50.986;6.990;2023-04-24T07:08:16;6.95;;;2.30;;
68089;SDS011;54880;50.986;6.990;2023-04-24T07:10:43;5.88;;;2.10;;
68089;SDS011;54880;50.986;6.990;2023-04-24T07:13:08;8.05;;;2.10;;
68089;SDS011;54880;50.986;6.990;2023-04-24T07:15:33;5.60;;;2.00;;
68089;SDS011;54880;50.986;6.990;2023-04-24T07:17:59;6.93;;;2.00;;
68089;SDS011;54880;50.986;6.990;2023-04-24T07:20:25;7.33;;;2.30;;
68089;SDS011;54880;50.986;6.990;2023-04-24T07:22:50;6.33;;;2.20;;
68089;SDS011;54880;50.986;6.990;2023-04-24T07:25:16;5.88;;;2.20;;
68089;SDS011;54880;50.986;6.990;2023-04-24T07:27:42;5.60;;;1.90;;
68089;SDS011;54880;50.986;6.990;2023-04-24T07:30:07;6.27;;;2.40;;
68089;SDS011;54880;50.986;6.990;2023-04-24T07:32:32;8.77;;;2.67;;
68089;SDS011;54880;50.986;6.990;2023-04-24T07:34:58;8.03;;;2.23;;
68089;SDS011;54880;50.986;6.990;2023-04-24T07:37:23;5.33;;;1.97;;
68089;SDS011;54880;50.986;6.990;2023-04-24T07:39:49;6.85;;;1.80;;
68089;SDS011;54880;50.986;6.990;2023-04-24T07:42:14;4.83;;;1.70;;
68089;SDS011;54880;50.986;6.990;2023-04-24T07:44:39;6.00;;;1.50;;
68089;SDS011;54880;50.986;6.990;2023-04-24T07:47:05;4.60;;;1.70;;
68089;SDS011;54880;50.986;6.990;2023-04-24T07:49:30;5.50;;;1.80;;
68089;SDS011;54880;50.986;6.990;2023-04-24T07:51:55;5.57;;;1.67;;
68089;SDS011;54880;50.986;6.990;2023-04-24T07:54:20;4.50;;;1.30;;
68089;SDS011;54880;50.986;6.990;2023-04-24T07:56:46;6.57;;;1.53;;
68089;SDS011;54880;50.986;6.990;2023-04-24T07:59:11;5.70;;;1.53;;
68089;SDS011;54880;50.986;6.990;2023-04-24T08:01:36;5.70;;;1.30;;
68089;SDS011;54880;50.986;6.990;2023-04-24T08:04:02;5.80;;;1.40;;
68089;SDS011;54880;50.986;6.990;2023-04-24T08:06:27;5.27;;;2.07;;
68089;SDS011;54880;50.986;6.990;2023-04-24T08:08:57;6.23;;;1.40;;
68089;SDS011;54880;50.986;6.990;2023-04-24T08:11:22;4.47;;;1.30;;
68089;SDS011;54880;50.986;6.990;2023-04-24T08:13:47;5.17;;;1.30;;
68089;SDS011;54880;50.986;6.990;2023-04-24T08:16:12;4.60;;;1.40;;
68089;SDS011;54880;50.986;6.990;2023-04-24T08:18:38;5.10;;;1.17;;
68089;SDS011;54880;50.986;6.990;2023-04-24T08:21:03;4.80;;;1.30;;
68089;SDS011;54880;50.986;6.990;2023-04-24T08:23:28;4.37;;;1.37;;
68089;SDS011;54880;50.986;6.990;2023-04-24T08:25:54;4.85;;;1.40;;
68089;SDS011;54880;50.986;6.990;2023-04-24T08:28:20;4.70;;;1.30;;
68089;SDS011;54880;50.986;6.990;2023-04-24T08:30:45;4.80;;;1.47;;
68089;SDS011;54880;50.986;6.990;2023-04-24T08:33:11;5.22;;;1.63;;
68089;SDS011;54880;50.986;6.990;2023-04-24T08:35:37;5.57;;;1.77;;
68089;SDS011;54880;50.986;6.990;2023-04-24T08:38:02;5.83;;;1.50;;
68089;SDS011;54880;50.986;6.990;2023-04-24T08:40:27;5.27;;;1.60;;
68089;SDS011;54880;50.986;6.990;2023-04-24T08:42:55;4.60;;;1.37;;
68089;SDS011;54880;50.986;6.990;2023-04-24T08:45:21;5.10;;;1.80;;
68089;SDS011;54880;50.986;6.990;2023-04-24T08:47:47;6.57;;;1.80;;
68089;SDS011;54880;50.986;6.990;2023-04-24T08:50:12;4.70;;;1.50;;
68089;SDS011;54880;50.986;6.990;2023-04-24T08:52:38;5.80;;;1.80;;
68089;SDS011;54880;50.986;6.990;2023-04-24T08:55:03;5.77;;;1.70;;
68089;SDS011;54880;50.986;6.990;2023-04-24T08:57:29;7.33;;;2.10;;
68089;SDS011;54880;50.986;6.990;2023-04-24T08:59:54;6.68;;;1.98;;
68089;SDS011;54880;50.986;6.990;2023-04-24T09:02:21;6.63;;;1.90;;
68089;SDS011;54880;50.986;6.990;2023-04-24T09:04:46;6.60;;;2.60;;
68089;SDS011;54880;50.986;6.990;2023-04-24T09:07:12;6.90;;;2.43;;
68089;SDS011;54880;50.986;6.990;2023-04-24T09:09:39;5.40;;;2.35;;
68089;SDS011;54880;50.986;6.990;2023-04-24T09:12:05;7.10;;;2.40;;
68089;SDS011;54880;50.986;6.990;2023-04-24T09:14:31;7.47;;;3.27;;
68089;SDS011;54880;50.986;6.990;2023-04-24T09:16:56;8.20;;;3.08;;
68089;SDS011;54880;50.986;6.990;2023-04-24T09:19:22;8.70;;;3.13;;
68089;SDS011;54880;50.986;6.990;2023-04-24T09:21:47;14.80;;;3.57;;
68089;SDS011;54880;50.986;6.990;2023-04-24T09:24:16;9.50;;;3.50;;
68089;SDS011;54880;50.986;6.990;2023-04-24T09:26:47;9.85;;;3.45;;
68089;SDS011;54880;50.986;6.990;2023-04-24T09:29:16;7.63;;;3.57;;
68089;SDS011;54880;50.986;6.990;2023-04-24T09:31:44;8.63;;;3.33;;
68089;SDS011;54880;50.986;6.990;2023-04-24T09:34:10;9.18;;;4.05;;
68089;SDS011;54880;50.986;6.990;2023-04-24T09:36:39;13.87;;;4.33;;
68089;SDS011;54880;50.986;6.990;2023-04-24T09:39:06;11.63;;;4.75;;
68089;SDS011;54880;50.986;6.990;2023-04-24T09:41:47;10.85;;;3.85;;
68089;SDS011;54880;50.986;6.990;2023-04-24T09:44:16;12.38;;;4.85;;
68089;SDS011;54880;50.986;6.990;2023-04-24T09:46:42;11.67;;;4.70;;
68089;SDS011;54880;50.986;6.990;2023-04-24T09:49:08;12.55;;;5.45;;
68089;SDS011;54880;50.986;6.990;2023-04-24T09:51:35;12.55;;;5.03;;
68089;SDS011;54880;50.986;6.990;2023-04-24T09:54:01;14.02;;;5.93;;
68089;SDS011;54880;50.986;6.990;2023-04-24T09:56:27;10.73;;;5.00;;
68089;SDS011;54880;50.986;6.990;2023-04-24T09:58:53;13.02;;;5.97;;
68089;SDS011;54880;50.986;6.990;2023-04-24T10:01:31;16.03;;;6.50;;
68089;SDS011;54880;50.986;6.990;2023-04-24T10:03:57;16.40;;;5.85;;
68089;SDS011;54880;50.986;6.990;2023-04-24T10:06:22;12.63;;;5.93;;
68089;SDS011;54880;50.986;6.990;2023-04-24T10:08:47;17.43;;;6.83;;
68089;SDS011;54880;50.986;6.990;2023-04-24T10:11:13;11.77;;;6.03;;
68089;SDS011;54880;50.986;6.990;2023-04-24T10:13:38;15.47;;;6.47;;
68089;SDS011;54880;50.986;6.990;2023-04-24T10:16:05;15.05;;;6.00;;
68089;SDS011;54880;50.986;6.990;2023-04-24T10:18:31;16.35;;;6.38;;
68089;SDS011;54880;50.986;6.990;2023-04-24T10:20:57;12.67;;;6.00;;
68089;SDS011;54880;50.986;6.990;2023-04-24T10:23:24;12.65;;;5.55;;
68089;SDS011;54880;50.986;6.990;2023-04-24T10:25:50;11.70;;;4.63;;
68089;SDS011;54880;50.986;6.990;2023-04-24T10:28:15;12.60;;;4.55;;
68089;SDS011;54880;50.986;6.990;2023-04-24T10:30:42;11.90;;;4.93;;
68089;SDS011;54880;50.986;6.990;2023-04-24T10:33:08;11.80;;;4.03;;
68089;SDS011;54880;50.986;6.990;2023-04-24T10:35:34;15.53;;;4.77;;
68089;SDS011;54880;50.986;6.990;2023-04-24T10:38:08;10.23;;;4.32;;
68089;SDS011;54880;50.986;6.990;2023-04-24T10:40:34;12.45;;;4.43;;
68089;SDS011;54880;50.986;6.990;2023-04-24T10:43:04;12.48;;;4.00;;
68089;SDS011;54880;50.986;6.990;2023-04-24T10:45:34;12.13;;;4.00;;
68089;SDS011;54880;50.986;6.990;2023-04-24T10:48:03;13.82;;;4.15;;
68089;SDS011;54880;50.986;6.990;2023-04-24T10:50:30;9.10;;;3.60;;
68089;SDS011;54880;50.986;6.990;2023-04-24T10:53:07;9.80;;;4.22;;
68089;SDS011;54880;50.986;6.990;2023-04-24T10:55:39;11.43;;;3.33;;
68089;SDS011;54880;50.986;6.990;2023-04-24T10:58:05;12.73;;;3.80;;
68089;SDS011;54880;50.986;6.990;2023-04-24T11:00:30;11.43;;;3.60;;
68089;SDS011;54880;50.986;6.990;2023-04-24T11:02:56;11.03;;;3.83;;
68089;SDS011;54880;50.986;6.990;2023-04-24T11:05:22;10.30;;;3.90;;
68089;SDS011;54880;50.986;6.990;2023-04-24T11:10:31;12.55;;;3.60;;
68089;SDS011;54880;50.986;6.990;2023-04-24T11:12:56;9.93;;;3.13;;
68089;SDS011;54880;50.986;6.990;2023-04-24T11:15:22;9.23;;;2.73;;
68089;SDS011;54880;50.986;6.990;2023-04-24T11:17:47;11.00;;;2.90;;
68089;SDS011;54880;50.986;6.990;2023-04-24T11:20:16;13.87;;;3.60;;
68089;SDS011;54880;50.986;6.990;2023-04-24T11:22:42;10.30;;;2.70;;
68089;SDS011;54880;50.986;6.990;2023-04-24T11:25:08;12.93;;;3.00;;
68089;SDS011;54880;50.986;6.990;2023-04-24T11:27:43;11.98;;;3.33;;
68089;SDS011;54880;50.986;6.990;2023-04-24T11:30:09;15.57;;;3.33;;
68089;SDS011;54880;50.986;6.990;2023-04-24T11:32:40;10.25;;;3.50;;
68089;SDS011;54880;50.986;6.990;2023-04-24T11:35:06;11.38;;;3.10;;
68089;SDS011;54880;50.986;6.990;2023-04-24T11:37:39;11.40;;;2.80;;
68089;SDS011;54880;50.986;6.990;2023-04-24T11:40:09;12.80;;;3.30;;
68089;SDS011;54880;50.986;6.990;2023-04-24T11:42:38;11.43;;;3.20;;
68089;SDS011;54880;50.986;6.990;2023-04-24T11:45:08;11.30;;;3.85;;
68089;SDS011;54880;50.986;6.990;2023-04-24T11:47:33;7.75;;;3.17;;
68089;SDS011;54880;50.986;6.990;2023-04-24T11:49:59;16.23;;;3.60;;
68089;SDS011;54880;50.986;6.990;2023-04-24T11:52:25;10.80;;;3.30;;
68089;SDS011;54880;50.986;6.990;2023-04-24T11:54:50;10.93;;;3.70;;
68089;SDS011;54880;50.986;6.990;2023-04-24T11:57:16;10.90;;;3.83;;
68089;SDS011;54880;50.986;6.990;2023-04-24T11:59:41;9.90;;;3.00;;
68089;SDS011;54880;50.986;6.990;2023-04-24T12:02:06;11.93;;;3.57;;
68089;SDS011;54880;50.986;6.990;2023-04-24T12:04:40;14.60;;;3.67;;
68089;SDS011;54880;50.986;6.990;2023-04-24T12:07:06;12.50;;;3.80;;
68089;SDS011;54880;50.986;6.990;2023-04-24T12:12:07;11.52;;;4.10;;
68089;SDS011;54880;50.986;6.990;2023-04-24T12:14:33;11.20;;;4.43;;
68089;SDS011;54880;50.986;6.990;2023-04-24T12:17:06;13.02;;;4.60;;
68089;SDS011;54880;50.986;6.990;2023-04-24T12:19:31;13.77;;;4.63;;
68089;SDS011;54880;50.986;6.990;2023-04-24T12:22:03;12.90;;;4.63;;
68089;SDS011;54880;50.986;6.990;2023-04-24T12:24:30;16.48;;;4.65;;
68089;SDS011;54880;50.986;6.990;2023-04-24T12:26:56;15.88;;;4.70;;
68089;SDS011;54880;50.986;6.990;2023-04-24T12:29:22;12.27;;;5.10;;
68089;SDS011;54880;50.986;6.990;2023-04-24T12:31:47;12.63;;;4.30;;
68089;SDS011;54880;50.986;6.990;2023-04-24T12:34:19;15.80;;;4.23;;
68089;SDS011;54880;50.986;6.990;2023-04-24T12:36:45;10.97;;;3.87;;
68089;SDS011;54880;50.986;6.990;2023-04-24T12:39:17;13.80;;;4.57;;
68089;SDS011;54880;50.986;6.990;2023-04-24T12:41:56;9.87;;;3.97;;
68089;SDS011;54880;50.986;6.990;2023-04-24T12:44:29;11.45;;;3.88;;
68089;SDS011;54880;50.986;6.990;2023-04-24T12:46:54;12.15;;;4.00;;
68089;SDS011;54880;50.986;6.990;2023-04-24T12:49:19;9.70;;;3.30;;
68089;SDS011;54880;50.986;6.990;2023-04-24T12:51:44;13.97;;;4.27;;
68089;SDS011;54880;50.986;6.990;2023-04-24T12:54:10;8.60;;;3.60;;
68089;SDS011;54880;50.986;6.990;2023-04-24T12:56:36;10.27;;;3.05;;
68089;SDS011;54880;50.986;6.990;2023-04-24T12:59:04;11.20;;;3.30;;
68089;SDS011;54880;50.986;6.990;2023-04-24T13:01:30;10.57;;;3.40;;
68089;SDS011;54880;50.986;6.990;2023-04-24T13:03:55;11.77;;;3.50;;
68089;SDS011;54880;50.986;6.990;2023-04-24T13:06:20;8.50;;;3.25;;
68089;SDS011;54880;50.986;6.990;2023-04-24T13:08:46;11.10;;;3.10;;
68089;SDS011;54880;50.986;6.990;2023-04-24T13:11:12;9.55;;;3.03;;
68089;SDS011;54880;50.986;6.990;2023-04-24T13:13:38;16.83;;;3.60;;
68089;SDS011;54880;50.986;6.990;2023-04-24T13:16:03;8.33;;;2.90;;
68089;SDS011;54880;50.986;6.990;2023-04-24T13:18:28;14.67;;;3.20;;
68089;SDS011;54880;50.986;6.990;2023-04-24T13:20:54;10.27;;;3.77;;
68089;SDS011;54880;50.986;6.990;2023-04-24T13:23:19;12.97;;;3.90;;
68089;SDS011;54880;50.986;6.990;2023-04-24T13:25:45;12.30;;;3.80;;
68089;SDS011;54880;50.986;6.990;2023-04-24T13:28:10;12.90;;;3.93;;
68089;SDS011;54880;50.986;6.990;2023-04-24T13:30:35;12.03;;;3.40;;
68089;SDS011;54880;50.986;6.990;2023-04-24T13:33:01;11.23;;;3.90;;
68089;SDS011;54880;50.986;6.990;2023-04-24T13:35:26;9.47;;;3.43;;
68089;SDS011;54880;50.986;6.990;2023-04-24T13:37:51;14.40;;;3.13;;
68089;SDS011;54880;50.986;6.990;2023-04-24T13:40:17;10.47;;;3.00;;
68089;SDS011;54880;50.986;6.990;2023-04-24T13:42:42;7.33;;;2.93;;
68089;SDS011;54880;50.986;6.990;2023-04-24T13:45:08;8.75;;;2.97;;
68089;SDS011;54880;50.986;6.990;2023-04-24T13:47:33;9.63;;;3.20;;
68089;SDS011;54880;50.986;6.990;2023-04-24T13:49:58;14.27;;;3.23;;
68089;SDS011;54880;50.986;6.990;2023-04-24T13:52:24;10.00;;;2.83;;
68089;SDS011;54880;50.986;6.990;2023-04-24T13:54:49;8.57;;;2.53;;
68089;SDS011;54880;50.986;6.990;2023-04-24T13:57:14;12.10;;;3.20;;
68089;SDS011;54880;50.986;6.990;2023-04-24T13:59:40;9.20;;;3.25;;
68089;SDS011;54880;50.986;6.990;2023-04-24T14:02:05;9.63;;;2.70;;
68089;SDS011;54880;50.986;6.990;2023-04-24T14:04:31;13.17;;;2.67;;
68089;SDS011;54880;50.986;6.990;2023-04-24T14:06:56;8.63;;;2.90;;
68089;SDS011;54880;50.986;6.990;2023-04-24T14:09:21;7.27;;;2.90;;
68089;SDS011;54880;50.986;6.990;2023-04-24T14:11:46;11.97;;;2.80;;
68089;SDS011;54880;50.986;6.990;2023-04-24T14:14:12;10.07;;;3.10;;
68089;SDS011;54880;50.986;6.990;2023-04-24T14:16:37;12.33;;;2.93;;
68089;SDS011;54880;50.986;6.990;2023-04-24T14:19:02;7.90;;;2.70;;
68089;SDS011;54880;50.986;6.990;2023-04-24T14:21:27;12.30;;;2.80;;
68089;SDS011;54880;50.986;6.990;2023-04-24T14:23:53;10.23;;;3.27;;
68089;SDS011;54880;50.986;6.990;2023-04-24T14:26:19;12.33;;;3.37;;
68089;SDS011;54880;50.986;6.990;2023-04-24T14:28:44;10.80;;;3.60;;
68089;SDS011;54880;50.986;6.990;2023-04-24T14:31:09;10.70;;;3.07;;
68089;SDS011;54880;50.986;6.990;2023-04-24T14:33:35;7.27;;;3.00;;
68089;SDS011;54880;50.986;6.990;2023-04-24T14:36:00;7.90;;;2.97;;
68089;SDS011;54880;50.986;6.990;2023-04-24T14:38:27;11.52;;;3.58;;
68089;SDS011;54880;50.986;6.990;2023-04-24T14:40:52;8.20;;;2.90;;
68089;SDS011;54880;50.986;6.990;2023-04-24T14:43:18;13.70;;;4.30;;